Time;durP1;ratioP1;P1;durP2;ratioP2;P2;SDS_P1;SDS_P2;PMS_P1;PMS_P2;Temp;Humidity;BMP_temperature;BMP_pressure;BME280_temperature;BME280_humidity;BME280_pressure;Samples;Min_cycle;Max_cycle;Signal;HPM_P1;HPM_P2
2024/03/20 00:01:20;;;;;;;;;18.00;16.00;;;;;13.99;65.42;101151.59;5058137;28;71147;-51
2024/03/20 00:03:46;;;;;;;;;18.75;16.75;;;;;13.96;65.46;101152.53;5059437;28;45789;-53
2024/03/20 00:06:12;;;;;;;;;19.25;16.75;;;;;13.94;65.43;101159.63;5054052;28;45415;-49
2024/03/20 00:08:37;;;;;;;;;22.75;19.75;;;;;13.94;65.50;101159.63;5052725;28;51175;-54
2024/03/20 00:11:02;;;;;;;;;28.75;17.00;;;;;13.93;65.68;101154.44;5058981;28;52568;-48
2024/03/20 00:13:28;;;;;;;;;24.50;20.75;;;;;13.91;66.06;101162.38;5055162;28;45431;-50
2024/03/20 00:15:53;;;;;;;;;16.75;13.50;;;;;13.91;65.64;101157.09;5052981;28;68602;-50
2024/03/20 00:18:18;;;;;;;;;25.75;19.75;;;;;13.89;66.09;101163.34;5054528;28;72142;-53
2024/03/20 00:20:44;;;;;;;;;20.25;19.00;;;;;13.88;66.17;101162.47;5050907;28;45273;-53
2024/03/20 00:23:09;;;;;;;;;22.50;17.00;;;;;13.88;66.12;101157.19;5051852;28;67998;-50
2024/03/20 00:25:34;;;;;;;;;15.75;13.50;;;;;13.85;66.15;101155.53;5059019;28;45346;-50
2024/03/20 00:28:00;;;;;;;;;19.50;17.00;;;;;13.85;66.08;101152.91;5052086;28;66411;-51
2024/03/20 00:30:26;;;;;;;;;19.75;17.00;;;;;13.84;66.28;101151.19;5047845;28;46912;-54
2024/03/20 00:32:51;;;;;;;;;21.25;16.25;;;;;13.82;66.24;101144.28;5050815;28;45298;-53
2024/03/20 00:35:16;;;;;;;;;28.00;22.00;;;;;13.78;65.99;101140.03;5039540;28;45249;-53
2024/03/20 00:37:41;;;;;;;;;19.25;18.00;;;;;13.74;66.61;101149.81;5027988;28;66674;-50
2024/03/20 00:40:08;;;;;;;;;22.00;18.00;;;;;13.70;66.51;101145.53;5053348;28;67250;-49
2024/03/20 00:42:34;;;;;;;;;23.00;17.00;;;;;13.66;66.43;101149.19;5057304;28;45197;-50
2024/03/20 00:45:00;;;;;;;;;19.00;14.50;;;;;13.61;66.80;101144.06;5043306;28;45307;-48
2024/03/20 00:47:25;;;;;;;;;14.25;13.50;;;;;13.57;67.21;101150.34;5053506;28;45488;-52
2024/03/20 00:49:51;;;;;;;;;20.75;15.75;;;;;13.54;66.99;101145.19;5057294;28;46102;-53
2024/03/20 00:52:16;;;;;;;;;19.00;17.00;;;;;13.52;67.01;101147.00;5073439;28;45371;-52
2024/03/20 00:54:41;;;;;;;;;23.50;16.25;;;;;13.46;67.62;101140.19;5061609;28;45381;-53
2024/03/20 00:57:07;;;;;;;;;20.25;16.25;;;;;13.42;67.51;101137.69;5058483;28;45431;-53
2024/03/20 00:59:32;;;;;;;;;21.00;15.75;;;;;13.41;67.31;101142.09;5050005;28;56065;-49
2024/03/20 01:01:57;;;;;;;;;19.75;15.25;;;;;13.37;67.40;101137.84;5060501;28;71967;-51
2024/03/20 01:04:23;;;;;;;;;24.00;18.00;;;;;13.33;68.26;101140.63;5060275;28;66625;-51
2024/03/20 01:06:48;;;;;;;;;26.25;17.25;;;;;13.31;67.93;101145.91;5061340;28;71914;-54
2024/03/20 01:09:13;;;;;;;;;17.50;16.75;;;;;13.28;68.40;101144.22;5059080;28;75496;-51
2024/03/20 01:11:39;;;;;;;;;23.75;18.00;;;;;13.25;68.58;101146.94;5060221;27;45457;-51
2024/03/20 01:14:04;;;;;;;;;23.25;19.25;;;;;13.24;68.73;101144.38;5060103;28;62873;-51
2024/03/20 01:16:29;;;;;;;;;22.25;18.50;;;;;13.22;68.45;101141.78;5060010;28;45521;-50
2024/03/20 01:18:55;;;;;;;;;17.75;16.25;;;;;13.21;68.24;101139.19;5048967;28;46789;-49
2024/03/20 01:21:20;;;;;;;;;21.50;18.50;;;;;13.17;68.18;101138.44;5051386;28;45359;-53
2024/03/20 01:23:46;;;;;;;;;22.50;20.75;;;;;13.10;68.56;101143.03;5049432;28;67359;-54
2024/03/20 01:26:11;;;;;;;;;23.00;17.25;;;;;13.04;68.80;101134.47;5061133;28;46545;-50
2024/03/20 01:28:36;;;;;;;;;23.00;17.25;;;;;12.98;69.17;101138.16;5059821;28;66407;-52
2024/03/20 01:31:02;;;;;;;;;26.75;16.25;;;;;12.94;69.41;101139.16;5061147;28;60289;-51
2024/03/20 01:33:27;;;;;;;;;23.00;17.50;;;;;12.90;69.37;101138.38;5054710;28;45902;-50
2024/03/20 01:35:52;;;;;;;;;26.00;17.50;;;;;12.86;69.77;101143.78;5069400;28;73510;-51
2024/03/20 01:38:18;;;;;;;;;24.00;18.25;;;;;12.80;69.64;101139.59;5045354;28;46273;-51
2024/03/20 01:40:43;;;;;;;;;23.75;19.75;;;;;12.77;69.87;101136.19;5059942;28;45204;-52
2024/03/20 01:43:19;;;;;;;;;17.25;16.50;;;;;12.73;70.19;101138.06;5048451;28;69233;-50
2024/03/20 01:45:46;;;;;;;;;23.75;18.75;;;;;12.69;70.45;101139.88;5048850;28;45304;-54
2024/03/20 01:48:11;;;;;;;;;20.75;18.00;;;;;12.65;70.40;101143.50;5057693;28;46487;-50
2024/03/20 01:50:37;;;;;;;;;19.25;15.75;;;;;12.61;70.64;101136.63;5051611;28;71368;-50
2024/03/20 01:53:03;;;;;;;;;22.75;16.50;;;;;12.60;70.84;101144.53;5048347;28;69699;-51
2024/03/20 01:55:28;;;;;;;;;19.50;15.50;;;;;12.56;70.81;101141.16;5060830;28;45473;-50
2024/03/20 01:57:54;;;;;;;;;18.00;15.00;;;;;12.53;70.71;101141.22;5059526;28;75640;-52
2024/03/20 02:00:23;;;;;;;;;18.75;17.75;;;;;12.49;71.55;101140.47;5051549;28;45495;-51
2024/03/20 02:02:55;;;;;;;;;19.75;17.00;;;;;12.48;71.49;101151.00;5059126;28;45655;-50
2024/03/20 02:05:20;;;;;;;;;18.50;14.50;;;;;12.45;71.10;101145.84;5056661;28;45568;-52
2024/03/20 02:07:46;;;;;;;;;26.00;22.25;;;;;12.43;71.66;101145.00;5046692;28;58747;-53
2024/03/20 02:10:11;;;;;;;;;11.25;10.00;;;;;12.39;71.84;101144.25;5061924;27;46296;-53
2024/03/20 02:12:37;;;;;;;;;25.25;20.50;;;;;12.38;72.01;101147.78;5060570;28;45900;-50
2024/03/20 02:15:08;;;;;;;;;17.00;16.50;;;;;12.36;71.70;101144.34;5061006;28;45293;-53
2024/03/20 02:17:35;;;;;;;;;16.25;14.50;;;;;12.33;71.96;101141.81;5059728;28;46129;-51
2024/03/20 02:20:00;;;;;;;;;16.75;16.00;;;;;12.31;72.69;101138.38;5059787;28;45457;-54
2024/03/20 02:22:25;;;;;;;;;11.25;10.25;;;;;12.29;72.15;101142.81;5054401;28;45673;-52
2024/03/20 02:24:51;;;;;;;;;19.75;14.50;;;;;12.27;73.05;101139.34;5059878;28;73543;-53
2024/03/20 02:27:16;;;;;;;;;17.25;16.25;;;;;12.23;72.70;101135.94;5056396;28;74429;-51
2024/03/20 02:29:41;;;;;;;;;18.75;16.25;;;;;12.21;72.75;101140.38;5026283;28;63877;-51
2024/03/20 02:32:07;;;;;;;;;20.50;17.00;;;;;12.18;73.37;101143.06;5058402;28;68257;-53
2024/03/20 02:34:32;;;;;;;;;12.25;12.00;;;;;12.15;73.38;101135.31;5052056;28;45467;-52
2024/03/20 02:36:57;;;;;;;;;23.50;16.75;;;;;12.15;73.75;101141.41;5054244;28;45170;-52
2024/03/20 02:39:23;;;;;;;;;16.00;14.25;;;;;12.13;73.49;101142.34;5049433;28;56024;-52
2024/03/20 02:41:48;;;;;;;;;19.50;17.25;;;;;12.12;73.55;101141.47;5056736;28;45597;-49
2024/03/20 02:44:14;;;;;;;;;21.00;18.50;;;;;12.11;73.30;101152.88;5060733;28;45430;-52
2024/03/20 02:46:40;;;;;;;;;19.50;16.25;;;;;12.09;73.71;101146.81;5060189;27;45481;-55
2024/03/20 02:49:05;;;;;;;;;22.00;18.00;;;;;12.06;73.42;101141.66;5055824;27;45672;-51
2024/03/20 02:51:30;;;;;;;;;16.50;14.25;;;;;12.02;73.82;101147.00;5050627;28;68131;-50
2024/03/20 02:53:56;;;;;;;;;17.00;17.00;;;;;12.01;74.16;101146.16;5053839;28;73138;-49
2024/03/20 02:56:21;;;;;;;;;21.25;19.25;;;;;11.97;73.80;101141.91;5060427;28;45360;-49
2024/03/20 02:58:46;;;;;;;;;22.00;19.25;;;;;11.96;73.86;101135.78;5053451;28;62321;-51
2024/03/20 03:01:12;;;;;;;;;20.25;17.25;;;;;11.94;74.71;101140.22;5056770;28;45233;-52
2024/03/20 03:03:37;;;;;;;;;23.25;19.25;;;;;11.93;74.57;101133.25;5056010;28;73341;-51
2024/03/20 03:06:03;;;;;;;;;19.25;16.50;;;;;11.90;74.72;101130.72;5057683;28;54152;-53
2024/03/20 03:08:28;;;;;;;;;21.25;18.50;;;;;11.92;74.49;101136.75;5049617;28;45549;-55
2024/03/20 03:10:55;;;;;;;;;16.75;15.50;;;;;11.90;74.56;101127.19;5052549;28;60481;-49
2024/03/20 03:13:20;;;;;;;;;23.75;16.25;;;;;11.87;74.97;101128.13;5058450;28;45470;-50
2024/03/20 03:15:45;;;;;;;;;18.50;16.75;;;;;11.87;75.14;101122.03;5058811;28;45648;-54
2024/03/20 03:18:11;;;;;;;;;22.00;17.00;;;;;11.88;75.40;101122.00;5059557;28;73107;-51
2024/03/20 03:20:36;;;;;;;;;18.50;16.50;;;;;11.87;75.24;101116.78;5046264;28;68976;-51
2024/03/20 03:23:02;;;;;;;;;19.50;16.75;;;;;11.88;75.26;101118.47;5059973;28;45429;-48
2024/03/20 03:25:27;;;;;;;;;20.00;17.50;;;;;11.87;75.35;101114.16;5045902;27;45362;-53
2024/03/20 03:27:52;;;;;;;;;18.25;17.75;;;;;11.86;75.65;101110.66;5050905;28;45266;-50
2024/03/20 03:30:18;;;;;;;;;20.75;18.25;;;;;11.84;75.25;101106.38;5039355;28;59619;-49
2024/03/20 03:32:43;;;;;;;;;21.75;21.50;;;;;11.86;75.88;101118.53;5058707;28;63020;-52
2024/03/20 03:35:09;;;;;;;;;21.50;19.00;;;;;11.87;75.84;101109.75;5060193;28;46115;-49
2024/03/20 03:37:35;;;;;;;;;19.50;15.75;;;;;11.88;75.63;101114.13;5054893;28;45363;-54
2024/03/20 03:40:01;;;;;;;;;18.75;15.50;;;;;11.88;75.98;101101.00;5057919;28;62995;-53
2024/03/20 03:42:27;;;;;;;;;18.75;17.75;;;;;11.89;76.09;101100.09;5053996;27;45474;-51
2024/03/20 03:44:52;;;;;;;;;17.50;15.75;;;;;11.89;75.79;101092.22;5056100;28;45530;-54
2024/03/20 03:47:18;;;;;;;;;27.75;17.75;;;;;11.90;75.98;101095.72;5059656;28;45381;-52
2024/03/20 03:49:43;;;;;;;;;25.50;18.25;;;;;11.90;76.35;101094.00;5051019;28;45521;-52
2024/03/20 03:52:08;;;;;;;;;21.25;19.00;;;;;11.92;76.09;101097.44;5053570;28;64891;-52
2024/03/20 03:54:34;;;;;;;;;20.50;16.75;;;;;11.94;76.43;101092.13;5057053;28;47216;-53
2024/03/20 03:57:03;;;;;;;;;25.00;20.00;;;;;11.94;76.31;101093.00;5043470;28;71238;-54
2024/03/20 03:59:28;;;;;;;;;24.00;19.25;;;;;11.95;76.34;101091.22;5058640;28;45232;-52
2024/03/20 04:01:54;;;;;;;;;24.75;19.75;;;;;11.97;76.40;101089.44;5054462;28;45434;-54
2024/03/20 04:04:19;;;;;;;;;25.00;20.00;;;;;11.98;76.46;101087.69;5059442;28;46150;-54
2024/03/20 04:06:44;;;;;;;;;22.25;18.50;;;;;11.99;76.30;101086.75;5059476;28;45272;-53
2024/03/20 04:09:10;;;;;;;;;24.75;22.00;;;;;11.97;76.44;101078.97;5066847;27;45398;-50
2024/03/20 04:11:37;;;;;;;;;22.00;21.00;;;;;11.99;76.46;101087.63;5056033;28;47250;-52
2024/03/20 04:14:02;;;;;;;;;24.00;20.00;;;;;11.99;76.47;101087.63;5051511;28;46921;-49
2024/03/20 04:16:28;;;;;;;;;24.00;20.25;;;;;11.99;76.22;101090.25;5058925;28;45497;-53
2024/03/20 04:18:53;;;;;;;;;23.00;20.25;;;;;11.99;76.24;101092.88;5057009;28;62304;-52
2024/03/20 04:21:20;;;;;;;;;23.75;21.50;;;;;12.00;76.84;101093.72;5058568;28;45249;-53
2024/03/20 04:23:46;;;;;;;;;20.00;18.75;;;;;12.02;76.65;101098.03;5056177;28;46130;-50
2024/03/20 04:26:11;;;;;;;;;19.25;17.50;;;;;12.03;76.71;101094.50;5044739;28;45684;-52
2024/03/20 04:28:37;;;;;;;;;23.75;21.00;;;;;12.06;76.88;101096.22;5056001;28;69374;-54
2024/03/20 04:31:05;;;;;;;;;22.75;19.50;;;;;12.06;76.76;101093.59;5053541;28;68942;-52
2024/03/20 04:33:30;;;;;;;;;24.00;19.50;;;;;12.07;76.58;101098.75;5043445;28;46414;-54
2024/03/20 04:35:55;;;;;;;;;25.00;22.75;;;;;12.09;76.35;101089.13;5062491;28;45485;-53
2024/03/20 04:38:21;;;;;;;;;26.75;19.75;;;;;12.10;76.66;101093.44;5062499;28;45311;-51
2024/03/20 04:40:46;;;;;;;;;28.50;22.00;;;;;12.11;76.77;101097.78;5051539;28;73266;-54
2024/03/20 04:43:11;;;;;;;;;23.00;19.50;;;;;12.10;77.01;101096.06;5060391;28;62685;-53
2024/03/20 04:45:37;;;;;;;;;19.50;19.25;;;;;12.10;76.66;101093.44;5056090;28;45253;-51
2024/03/20 04:48:02;;;;;;;;;29.00;22.75;;;;;12.11;76.66;101094.28;5056162;28;69345;-53
2024/03/20 04:50:28;;;;;;;;;30.25;24.00;;;;;12.11;76.18;101099.53;5052415;28;45455;-51
2024/03/20 04:52:53;;;;;;;;;22.25;20.00;;;;;12.10;76.15;101103.06;5062280;28;46212;-52
2024/03/20 04:55:18;;;;;;;;;25.75;22.25;;;;;12.06;76.04;101106.69;5069602;28;76139;-52
2024/03/20 04:57:44;;;;;;;;;27.75;24.00;;;;;12.03;76.29;101110.25;5050679;28;66324;-52
2024/03/20 05:00:15;;;;;;;;;28.75;23.50;;;;;11.95;75.88;101110.47;5057960;28;45743;-55
2024/03/20 05:02:42;;;;;;;;;35.25;26.75;;;;;11.92;76.12;101110.53;5057757;28;45245;-52
2024/03/20 05:05:09;;;;;;;;;24.50;21.75;;;;;11.87;76.57;101103.66;5045090;28;45859;-52
2024/03/20 05:07:35;;;;;;;;;26.00;22.00;;;;;11.82;76.50;101116.88;5053093;28;45269;-51
2024/03/20 05:10:00;;;;;;;;;24.75;23.50;;;;;11.79;76.21;101111.72;5055950;28;45438;-50
2024/03/20 05:12:25;;;;;;;;;27.25;22.00;;;;;11.77;77.19;101110.91;5058348;28;75927;-52
2024/03/20 05:14:50;;;;;;;;;29.75;23.00;;;;;11.76;77.14;101110.03;5051409;28;60706;-51
2024/03/20 05:17:16;;;;;;;;;26.25;22.00;;;;;11.74;76.90;101109.22;5054780;28;69229;-54
2024/03/20 05:19:41;;;;;;;;;26.00;23.00;;;;;11.72;77.03;101102.28;5056106;28;69706;-53
2024/03/20 05:22:06;;;;;;;;;33.00;24.25;;;;;11.70;76.70;101107.56;5048862;28;73133;-53
2024/03/20 05:24:32;;;;;;;;;17.25;12.50;;;;;11.68;76.95;101111.16;5050968;28;45357;-48
2024/03/20 05:26:57;;;;;;;;;29.00;25.25;;;;;11.66;77.13;101099.84;5042714;28;68310;-47
2024/03/20 05:29:22;;;;;;;;;25.00;21.25;;;;;11.64;77.09;101099.88;5042071;28;45365;-49
2024/03/20 05:31:48;;;;;;;;;34.50;25.75;;;;;11.63;77.38;101107.78;5056081;28;61447;-52
2024/03/20 05:34:13;;;;;;;;;31.75;26.50;;;;;11.63;77.86;101110.41;5047833;28;73032;-50
2024/03/20 05:36:38;;;;;;;;;33.75;24.00;;;;;11.62;77.63;101109.53;5060583;28;68310;-53
2024/03/20 05:39:05;;;;;;;;;30.00;26.50;;;;;11.63;77.71;101113.88;5053089;28;73225;-53
2024/03/20 05:41:30;;;;;;;;;31.00;22.00;;;;;11.64;77.70;101105.13;5053904;28;45437;-54
2024/03/20 05:43:56;;;;;;;;;27.00;23.25;;;;;11.66;77.51;101112.94;5052034;28;45455;-50
2024/03/20 05:46:22;;;;;;;;;26.75;25.25;;;;;11.68;77.84;101100.66;5053173;28;45342;-53
2024/03/20 05:48:47;;;;;;;;;28.50;23.00;;;;;11.69;77.78;101107.63;5055541;28;45703;-53
2024/03/20 05:51:12;;;;;;;;;32.50;25.00;;;;;11.71;77.86;101111.94;5050549;28;72734;-52
2024/03/20 05:53:38;;;;;;;;;30.25;22.50;;;;;11.73;77.93;101110.13;5055641;28;45260;-50
2024/03/20 05:56:04;;;;;;;;;30.00;24.75;;;;;11.75;78.15;101108.31;5048535;28;45331;-51
2024/03/20 05:58:29;;;;;;;;;31.00;29.00;;;;;11.78;77.90;101113.47;5058860;28;45534;-51
2024/03/20 06:00:55;;;;;;;;;33.75;25.25;;;;;11.80;77.78;101112.59;5056378;28;75496;-51
2024/03/20 06:03:20;;;;;;;;;36.00;28.25;;;;;11.79;78.10;101109.09;5058079;28;74344;-49
2024/03/20 06:05:47;;;;;;;;;31.50;29.75;;;;;11.78;77.57;101116.09;5056089;28;65299;-52
2024/03/20 06:08:12;;;;;;;;;30.25;25.25;;;;;11.78;77.77;101118.72;5055486;28;45430;-53
2024/03/20 06:10:38;;;;;;;;;31.50;27.75;;;;;11.78;78.05;101123.13;5059151;28;48342;-52
2024/03/20 06:13:03;;;;;;;;;35.25;32.75;;;;;11.78;78.05;101123.97;5053236;28;72013;-50
2024/03/20 06:15:29;;;;;;;;;35.00;25.50;;;;;11.80;78.22;101117.84;5061037;28;45193;-50
2024/03/20 06:17:54;;;;;;;;;34.25;29.25;;;;;11.81;78.38;101124.78;5058493;28;60825;-51
2024/03/20 06:20:20;;;;;;;;;32.25;28.00;;;;;11.81;78.37;101124.78;5050300;28;60283;-51
2024/03/20 06:22:45;;;;;;;;;35.00;32.00;;;;;11.81;77.88;101117.81;5053872;28;45407;-50
2024/03/20 06:25:12;;;;;;;;;30.25;28.00;;;;;11.85;78.18;101119.44;5058322;28;45272;-54
2024/03/20 06:27:38;;;;;;;;;30.00;24.50;;;;;11.85;77.96;101122.06;5032818;28;45364;-49
2024/03/20 06:30:11;;;;;;;;;32.25;27.50;;;;;11.86;77.91;101121.13;5060753;28;46049;-49
2024/03/20 06:32:39;;;;;;;;;31.25;25.50;;;;;11.88;78.12;101119.38;5049055;28;45414;-51
2024/03/20 06:35:05;;;;;;;;;29.25;23.75;;;;;11.91;78.17;101121.06;5057448;28;45766;-51
2024/03/20 06:37:31;;;;;;;;;31.50;24.25;;;;;11.94;77.80;101127.09;5049164;28;45846;-54
2024/03/20 06:39:56;;;;;;;;;35.75;29.75;;;;;11.99;77.43;101119.13;5043708;28;75615;-53
2024/03/20 06:42:21;;;;;;;;;34.25;31.00;;;;;12.01;77.62;101127.78;5066117;28;45507;-53
2024/03/20 06:44:47;;;;;;;;;30.50;26.00;;;;;12.04;77.43;101125.09;5058776;28;62381;-51
2024/03/20 06:47:14;;;;;;;;;34.25;28.25;;;;;12.08;77.38;101128.50;5059457;28;45533;-55
2024/03/20 06:49:39;;;;;;;;;33.50;28.00;;;;;12.11;77.13;101133.63;5052612;28;47130;-53
2024/03/20 06:52:05;;;;;;;;;32.50;29.00;;;;;12.14;77.17;101136.19;5054122;28;49871;-50
2024/03/20 06:54:30;;;;;;;;;34.75;27.25;;;;;12.14;76.89;101139.66;5052090;28;45419;-49
2024/03/20 06:57:01;;;;;;;;;34.50;27.25;;;;;12.18;76.91;101143.06;5044657;28;45532;-48
2024/03/20 06:59:29;;;;;;;;;29.75;23.25;;;;;12.23;76.67;101145.56;5040289;28;46194;-51
2024/03/20 07:01:55;;;;;;;;;22.50;22.00;;;;;12.25;76.80;101143.75;5044973;28;45979;-51
2024/03/20 07:04:20;;;;;;;;;39.00;30.00;;;;;12.28;76.34;101146.31;5056432;28;45811;-50
2024/03/20 07:06:45;;;;;;;;;31.75;29.25;;;;;12.31;76.52;101154.09;5054235;28;72858;-52
2024/03/20 07:09:11;;;;;;;;;39.00;31.00;;;;;12.34;76.20;101148.75;5050916;28;70426;-51
2024/03/20 07:11:38;;;;;;;;;48.75;34.25;;;;;12.38;76.51;101152.16;5040502;28;45916;-52
2024/03/20 07:14:03;;;;;;;;;39.25;32.75;;;;;12.42;76.25;101149.41;5053177;28;45619;-50
2024/03/20 07:16:29;;;;;;;;;41.75;32.50;;;;;12.48;76.42;101151.00;5052815;27;45348;-48
2024/03/20 07:18:54;;;;;;;;;34.50;30.25;;;;;12.54;76.18;101150.84;5045183;28;46243;-52
2024/03/20 07:21:21;;;;;;;;;46.75;33.75;;;;;12.63;76.08;101147.09;5058089;28;60104;-52
2024/03/20 07:23:46;;;;;;;;;45.50;32.25;;;;;12.72;76.01;101149.44;5071944;27;45404;-54
2024/03/20 07:26:11;;;;;;;;;36.00;32.25;;;;;12.80;75.50;101144.84;5054083;28;69910;-52
2024/03/20 07:28:38;;;;;;;;;42.50;31.75;;;;;12.86;75.37;101147.28;5049653;28;74921;-53
2024/03/20 07:31:04;;;;;;;;;34.25;28.50;;;;;12.95;75.71;101148.75;5050001;28;45770;-54
2024/03/20 07:33:29;;;;;;;;;33.25;31.00;;;;;13.03;75.29;101152.03;5059511;28;45238;-51
2024/03/20 07:35:55;;;;;;;;;39.75;32.00;;;;;13.12;75.27;101145.63;5052645;28;45293;-54
2024/03/20 07:38:21;;;;;;;;;39.50;28.75;;;;;13.22;74.72;101138.31;5040637;28;45201;-54
2024/03/20 07:40:52;;;;;;;;;39.75;32.50;;;;;13.32;74.65;101141.53;5044938;28;45252;-52
2024/03/20 07:43:18;;;;;;;;;51.75;38.25;;;;;13.40;74.42;101134.25;5054101;28;45277;-52
2024/03/20 07:45:43;;;;;;;;;46.75;34.00;;;;;13.49;74.16;101139.22;5053499;28;45410;-50
2024/03/20 07:48:09;;;;;;;;;52.50;37.00;;;;;13.56;74.10;101145.13;5057129;28;55087;-49
2024/03/20 07:50:34;;;;;;;;;37.50;33.50;;;;;13.61;73.58;101145.84;5039680;28;71908;-49
2024/03/20 07:53:00;;;;;;;;;48.00;34.50;;;;;13.65;73.55;101148.34;5050700;28;50010;-53
2024/03/20 07:55:25;;;;;;;;;38.75;32.75;;;;;13.67;72.80;101150.91;5060386;27;45268;-52
2024/03/20 07:57:51;;;;;;;;;42.75;30.75;;;;;13.70;72.73;101157.84;5042283;28;75675;-54
2024/03/20 08:00:16;;;;;;;;;35.00;26.50;;;;;13.73;72.70;101155.09;5039956;28;45329;-52
2024/03/20 08:02:43;;;;;;;;;34.50;30.75;;;;;13.75;72.33;101159.38;5046849;28;45317;-52
2024/03/20 08:05:12;;;;;;;;;38.75;32.75;;;;;13.76;72.44;101160.28;5058024;28;45284;-51
2024/03/20 08:07:38;;;;;;;;;38.25;32.25;;;;;13.77;72.50;101157.56;5052118;28;46164;-53
2024/03/20 08:10:04;;;;;;;;;46.50;35.00;;;;;13.79;72.21;101166.28;5053475;28;45246;-54
2024/03/20 08:12:31;;;;;;;;;38.50;33.50;;;;;13.80;72.28;101168.00;5047328;28;45345;-53
2024/03/20 08:14:56;;;;;;;;;47.00;34.00;;;;;13.82;72.16;101165.31;5039701;28;45566;-52
2024/03/20 08:17:22;;;;;;;;;44.00;33.75;;;;;13.85;71.95;101170.47;5039427;28;46772;-54
2024/03/20 08:19:47;;;;;;;;;39.00;36.00;;;;;13.91;71.92;101172.88;5039044;28;57406;-53
2024/03/20 08:22:12;;;;;;;;;44.50;34.75;;;;;13.97;71.86;101172.69;5043235;28;61193;-54
2024/03/20 08:24:38;;;;;;;;;40.00;34.25;;;;;14.03;71.81;101172.47;5065085;28;45891;-54
2024/03/20 08:27:03;;;;;;;;;39.00;33.25;;;;;14.09;71.28;101167.91;5044760;28;74640;-54
2024/03/20 08:29:28;;;;;;;;;38.75;34.00;;;;;14.13;71.45;101172.16;5059321;28;45443;-53
2024/03/20 08:31:54;;;;;;;;;47.25;35.75;;;;;14.18;71.01;101172.84;5046757;28;69062;-53
2024/03/20 08:34:19;;;;;;;;;41.00;33.25;;;;;14.22;70.99;101171.84;5051526;28;71186;-52
2024/03/20 08:36:45;;;;;;;;;42.75;34.50;;;;;14.28;70.95;101165.50;5038076;28;45351;-53
2024/03/20 08:39:10;;;;;;;;;38.75;30.75;;;;;14.33;70.66;101166.19;5036930;28;73315;-51
2024/03/20 08:41:36;;;;;;;;;41.25;32.75;;;;;14.37;70.51;101162.53;5040062;28;45356;-52
2024/03/20 08:44:02;;;;;;;;;44.50;35.50;;;;;14.41;70.74;101164.13;5046738;28;45538;-53
2024/03/20 08:46:28;;;;;;;;;41.75;32.00;;;;;14.44;70.21;101164.88;5047650;28;45461;-52
2024/03/20 08:48:54;;;;;;;;;34.25;31.00;;;;;14.53;70.27;101173.38;5044208;28;45336;-51
2024/03/20 08:51:19;;;;;;;;;42.75;35.25;;;;;14.58;70.18;101171.47;5038124;28;45289;-54
2024/03/20 08:53:45;;;;;;;;;46.50;36.50;;;;;14.64;70.21;101163.31;5039059;28;45420;-51
2024/03/20 08:56:11;;;;;;;;;45.25;35.50;;;;;14.69;70.08;101164.00;5038851;28;46315;-54
2024/03/20 08:58:36;;;;;;;;;42.75;34.25;;;;;14.77;70.12;101156.69;5037906;28;72527;-51
2024/03/20 09:01:01;;;;;;;;;45.50;34.50;;;;;14.88;69.84;101150.16;5045348;28;57766;-53
2024/03/20 09:03:28;;;;;;;;;41.00;33.00;;;;;15.02;69.65;101163.66;5041131;28;45306;-54
2024/03/20 09:05:54;;;;;;;;;42.25;33.75;;;;;15.11;69.25;101160.66;5059261;28;46948;-52
2024/03/20 09:08:20;;;;;;;;;43.50;34.75;;;;;15.21;69.11;101163.81;5057966;28;73326;-53
2024/03/20 09:10:46;;;;;;;;;43.25;36.00;;;;;15.27;68.95;101160.91;5038351;28;45264;-49
2024/03/20 09:13:11;;;;;;;;;46.00;35.00;;;;;15.33;68.20;101165.09;5041425;28;73237;-52
2024/03/20 09:15:37;;;;;;;;;41.00;33.50;;;;;15.41;68.23;101159.53;5048996;28;46933;-51
2024/03/20 09:18:02;;;;;;;;;39.75;32.50;;;;;15.47;67.99;101153.97;5076960;28;73197;-51
2024/03/20 09:20:30;;;;;;;;;41.50;32.75;;;;;15.53;67.52;101159.03;5062625;28;45372;-53
2024/03/20 09:22:56;;;;;;;;;37.00;31.25;;;;;15.61;67.70;101166.63;5061586;27;45467;-50
2024/03/20 09:25:22;;;;;;;;;41.00;33.00;;;;;15.70;67.15;101160.94;5062139;28;46172;-54
2024/03/20 09:27:48;;;;;;;;;35.00;31.50;;;;;15.75;67.24;101164.28;5062299;28;45245;-53
2024/03/20 09:30:15;;;;;;;;;42.00;34.25;;;;;15.81;66.76;101157.88;5060971;28;45339;-50
2024/03/20 09:32:44;;;;;;;;;44.50;34.25;;;;;15.89;66.46;101161.94;5048596;28;45328;-53
2024/03/20 09:35:12;;;;;;;;;43.75;33.25;;;;;16.00;66.38;101164.09;5049050;28;46350;-53
2024/03/20 09:37:37;;;;;;;;;32.25;29.50;;;;;16.16;66.25;101169.59;5046922;28;45977;-53
2024/03/20 09:40:08;;;;;;;;;41.50;32.50;;;;;16.29;65.78;101167.28;5042142;28;45303;-53
2024/03/20 09:42:34;;;;;;;;;35.50;29.75;;;;;16.44;65.45;101161.31;5054285;28;45357;-55
2024/03/20 09:45:00;;;;;;;;;39.00;29.00;;;;;16.61;65.26;101164.97;5040001;28;67911;-53
2024/03/20 09:47:27;;;;;;;;;33.75;26.75;;;;;16.75;64.64;101159.94;5041687;28;45250;-49
2024/03/20 09:49:57;;;;;;;;;29.25;27.75;;;;;16.87;64.88;101155.88;5052143;28;45416;-53
2024/03/20 09:52:22;;;;;;;;;29.50;20.25;;;;;16.99;64.02;101155.31;5054641;28;45355;-53
2024/03/20 09:54:49;;;;;;;;;21.00;17.75;;;;;17.13;63.49;101151.16;5041666;28;48682;-52
2024/03/20 09:57:14;;;;;;;;;19.25;17.25;;;;;17.23;62.63;101150.63;5040634;28;72335;-53
2024/03/20 09:59:42;;;;;;;;;18.00;17.50;;;;;17.36;62.27;101158.84;5043898;28;45344;-52
2024/03/20 10:02:08;;;;;;;;;17.75;16.50;;;;;17.53;61.82;101159.78;5040053;28;45494;-51
2024/03/20 10:04:35;;;;;;;;;17.00;14.00;;;;;17.71;61.48;101147.44;5051139;28;45356;-51
2024/03/20 10:07:09;;;;;;;;;11.25;7.50;;;;;17.90;60.75;101147.38;5061366;28;45315;-51
2024/03/20 10:09:34;;;;;;;;;18.00;14.50;;;;;18.04;60.76;101147.53;5061290;28;45304;-50
2024/03/20 10:12:00;;;;;;;;;15.00;14.00;;;;;18.13;59.69;101139.13;5060576;28;73069;-51
2024/03/20 10:14:26;;;;;;;;;17.50;14.00;;;;;18.28;59.46;101145.41;5059791;28;61970;-52
2024/03/20 10:16:52;;;;;;;;;18.00;14.75;;;;;18.42;59.08;101142.03;5061381;27;45727;-54
2024/03/20 10:19:25;;;;;;;;;14.75;13.25;;;;;18.55;58.33;101139.56;5061709;28;45423;-52
2024/03/20 10:21:50;;;;;;;;;15.75;12.50;;;;;18.69;58.02;101134.38;5060651;28;45364;-54
2024/03/20 10:24:17;;;;;;;;;53.50;42.50;;;;;18.87;58.06;101134.31;5075752;28;71358;-52
2024/03/20 10:26:42;;;;;;;;;33.75;27.50;;;;;19.03;57.42;101126.38;5060975;28;45234;-55
2024/03/20 10:29:11;;;;;;;;;13.25;12.75;;;;;19.22;56.29;101136.81;5050068;28;45229;-50
2024/03/20 10:31:36;;;;;;;;;11.00;10.75;;;;;19.38;56.26;101120.88;5043844;28;45365;-52
2024/03/20 10:34:03;;;;;;;;;18.75;13.00;;;;;19.49;55.43;101129.03;5038945;28;76225;-53
2024/03/20 10:36:29;;;;;;;;;16.75;14.25;;;;;19.54;55.11;101132.28;5041935;27;45274;-54
2024/03/20 10:38:54;;;;;;;;;16.50;13.00;;;;;19.63;55.00;101129.09;5041157;28;45379;-49
2024/03/20 10:41:20;;;;;;;;;27.00;26.00;;;;;19.70;54.60;101129.59;5045902;28;45342;-53
2024/03/20 10:43:46;;;;;;;;;18.00;14.00;;;;;19.81;54.87;101127.16;5058175;28;46296;-52
2024/03/20 10:46:14;;;;;;;;;13.00;12.50;;;;;19.95;54.75;101121.03;5040924;28;45394;-53
2024/03/20 10:48:40;;;;;;;;;14.25;11.75;;;;;20.04;54.22;101123.16;5048904;28;45297;-52
2024/03/20 10:51:11;;;;;;;;;83.25;67.25;;;;;20.10;53.49;101124.59;5054095;28;45585;-50
2024/03/20 10:53:37;;;;;;;;;19.25;13.00;;;;;20.15;52.74;101116.31;5040783;28;46139;-55
2024/03/20 10:56:04;;;;;;;;;10.50;9.50;;;;;20.19;52.79;101115.19;5040455;28;46825;-52
2024/03/20 10:58:29;;;;;;;;;13.25;9.25;;;;;20.19;52.43;101118.72;5052418;28;45225;-51
2024/03/20 11:00:55;;;;;;;;;12.75;9.75;;;;;20.20;52.50;101114.22;5047988;28;65741;-53
2024/03/20 11:03:37;;;;;;;;;9.00;7.50;;;;;20.16;51.66;101112.72;5040695;28;46109;-53